Time;durP1;ratioP1;P1;durP2;ratioP2;P2;SDS_P1;SDS_P2;PMS_P1;PMS_P2;Temp;Humidity;BMP_temperature;BMP_pressure;BME280_temperature;BME280_humidity;BME280_pressure;Samples;Min_cycle;Max_cycle;Signal;HPM_P1;HPM_P2
2021/12/21 00:01:00;;;;;;;20.65;3.63;;;-2.80;99.90;;;;;;4973729;28;20050;-87
2021/12/21 00:03:26;;;;;;;21.45;3.75;;;-2.80;99.90;;;;;;4973770;28;20398;-86
2021/12/21 00:05:53;;;;;;;13.02;3.20;;;-2.70;99.90;;;;;;4974216;28;20041;-87
2021/12/21 00:08:19;;;;;;;14.20;2.80;;;-2.80;99.90;;;;;;4974804;28;20062;-87
2021/12/21 00:10:47;;;;;;;15.38;3.03;;;-2.80;99.90;;;;;;4974363;28;20034;-87
2021/12/21 00:16:13;;;;;;;9.93;3.13;;;-2.80;99.90;;;;;;4974695;28;20031;-87
2021/12/21 00:21:19;;;;;;;10.10;3.38;;;-2.90;99.90;;;;;;4973377;28;20082;-87
2021/12/21 00:23:48;;;;;;;7.95;2.83;;;-3.00;99.90;;;;;;4974324;28;20042;-86
2021/12/21 00:26:17;;;;;;;19.05;4.25;;;-3.00;99.90;;;;;;4974101;28;20542;-86
2021/12/21 00:31:16;;;;;;;13.00;3.35;;;-2.90;99.90;;;;;;4974153;28;20058;-86
2021/12/21 00:33:45;;;;;;;9.60;3.10;;;-2.90;99.90;;;;;;4974586;28;20031;-86
2021/12/21 00:36:12;;;;;;;10.10;3.35;;;-2.90;99.90;;;;;;4974344;28;20394;-87
2021/12/21 00:38:38;;;;;;;17.38;3.25;;;-2.80;99.90;;;;;;4974078;28;20085;-86
2021/12/21 00:41:04;;;;;;;9.00;2.95;;;-2.80;99.90;;;;;;4973912;28;20038;-86
2021/12/21 00:43:31;;;;;;;16.15;3.45;;;-2.90;99.90;;;;;;4973766;28;20026;-87
2021/12/21 00:45:57;;;;;;;18.58;3.50;;;-2.90;99.90;;;;;;4957883;28;20041;-87
2021/12/21 00:48:28;;;;;;;13.05;3.28;;;-2.90;99.90;;;;;;4973898;28;20129;-87
2021/12/21 00:50:55;;;;;;;12.00;2.88;;;-3.00;99.90;;;;;;4974143;28;20066;-86
2021/12/21 00:53:21;;;;;;;18.80;3.63;;;-2.90;99.90;;;;;;4974034;28;20039;-87
2021/12/21 00:55:46;;;;;;;11.35;3.20;;;-2.90;99.90;;;;;;4973680;28;20046;-87
2021/12/21 00:58:12;;;;;;;12.50;3.13;;;-3.00;99.90;;;;;;4973664;28;20038;-87
2021/12/21 01:00:38;;;;;;;10.75;3.30;;;-3.10;99.90;;;;;;4973663;28;20155;-87
2021/12/21 01:03:09;;;;;;;13.70;3.65;;;-3.20;99.90;;;;;;4974111;28;20115;-87
2021/12/21 01:05:53;;;;;;;15.45;3.47;;;-3.20;99.90;;;;;;4973897;28;20389;-86
2021/12/21 01:08:23;;;;;;;9.02;2.88;;;-3.20;99.90;;;;;;4973882;28;20062;-87
2021/12/21 01:13:36;;;;;;;21.23;3.40;;;-3.30;99.90;;;;;;4972789;28;20074;-86
2021/12/21 01:16:15;;;;;;;11.45;3.63;;;-3.30;99.90;;;;;;4973676;28;20041;-86
2021/12/21 01:18:59;;;;;;;12.45;3.58;;;-3.30;99.90;;;;;;4973709;28;20038;-87
2021/12/21 01:21:29;;;;;;;14.80;3.33;;;-3.30;99.90;;;;;;4973328;28;20042;-86
2021/12/21 01:24:18;;;;;;;12.35;3.47;;;-3.30;99.90;;;;;;4973541;28;20031;-86
2021/12/21 01:26:59;;;;;;;17.60;4.28;;;-3.30;99.90;;;;;;4957700;28;20035;-86
2021/12/21 01:29:40;;;;;;;16.50;3.80;;;-3.40;99.90;;;;;;4973560;28;20030;-86
2021/12/21 01:35:10;;;;;;;14.35;3.25;;;-3.30;99.90;;;;;;4977239;28;20042;-86
2021/12/21 01:37:50;;;;;;;17.98;5.22;;;-3.20;99.90;;;;;;4977383;28;20035;-86
2021/12/21 01:40:37;;;;;;;15.10;4.07;;;-3.20;99.90;;;;;;4977275;28;20090;-86
2021/12/21 01:43:23;;;;;;;13.93;4.22;;;-3.10;99.90;;;;;;4976950;28;20546;-86
2021/12/21 01:51:19;;;;;;;13.82;5.00;;;-3.20;99.90;;;;;;4977170;28;20577;-86
2021/12/21 01:53:47;;;;;;;16.67;4.28;;;-3.10;99.90;;;;;;4976745;28;20030;-86
2021/12/21 01:56:13;;;;;;;13.98;4.18;;;-3.10;99.90;;;;;;4976686;28;20023;-86
2021/12/21 01:58:40;;;;;;;12.23;4.63;;;-3.20;99.90;;;;;;4976798;28;20038;-86
2021/12/21 02:01:08;;;;;;;15.88;4.22;;;-3.30;99.90;;;;;;4976896;28;20073;-86
2021/12/21 02:03:35;;;;;;;14.27;4.20;;;-3.30;99.90;;;;;;4976543;28;20129;-86
2021/12/21 02:06:01;;;;;;;15.38;4.50;;;-3.40;99.90;;;;;;4976800;28;20960;-87
2021/12/21 02:08:27;;;;;;;12.00;4.25;;;-3.40;99.90;;;;;;4976694;28;20117;-87
2021/12/21 02:10:52;;;;;;;16.60;4.47;;;-3.50;99.90;;;;;;4976722;28;20501;-87
2021/12/21 02:13:18;;;;;;;14.63;4.38;;;-3.50;99.90;;;;;;4976292;28;20038;-86
2021/12/21 02:15:45;;;;;;;13.88;4.57;;;-3.50;99.90;;;;;;4976476;28;20491;-86
2021/12/21 02:20:48;;;;;;;31.35;4.72;;;-3.50;99.90;;;;;;4975612;28;20039;-86
2021/12/21 02:23:22;;;;;;;17.88;4.63;;;-3.60;99.90;;;;;;4960291;28;20042;-87
2021/12/21 02:26:05;;;;;;;17.67;4.70;;;-3.70;99.90;;;;;;4976412;28;20056;-86
2021/12/21 02:30:57;;;;;;;20.02;4.78;;;-3.70;99.90;;;;;;4977335;28;20035;-86
2021/12/21 02:33:27;;;;;;;26.48;4.93;;;-3.70;99.90;;;;;;4976294;28;20467;-86
2021/12/21 02:35:54;;;;;;;22.50;5.00;;;-3.70;99.90;;;;;;4976397;28;20039;-87
2021/12/21 02:38:20;;;;;;;19.60;5.20;;;-3.70;99.90;;;;;;4976360;28;20129;-87
2021/12/21 02:40:48;;;;;;;23.83;5.55;;;-3.70;99.90;;;;;;4975902;28;20074;-86
2021/12/21 02:43:14;;;;;;;8.70;4.10;;;-3.80;99.90;;;;;;4974880;28;20039;-87
2021/12/21 02:45:41;;;;;;;14.00;3.88;;;-3.90;99.90;;;;;;4975878;28;20395;-87
2021/12/21 02:48:07;;;;;;;18.75;4.75;;;-3.90;99.90;;;;;;4976098;28;20058;-87
2021/12/21 02:50:33;;;;;;;23.98;5.03;;;-3.80;99.90;;;;;;4976216;28;20062;-86
2021/12/21 02:52:59;;;;;;;14.00;4.65;;;-3.90;99.90;;;;;;4944029;28;20125;-86
2021/12/21 02:55:26;;;;;;;17.50;5.22;;;-3.80;99.90;;;;;;4975844;28;20027;-87
2021/12/21 02:57:52;;;;;;;18.30;5.43;;;-3.90;99.90;;;;;;4976023;28;20364;-87
2021/12/21 03:00:20;;;;;;;18.52;5.07;;;-4.00;99.90;;;;;;4975370;28;20070;-86
2021/12/21 03:02:45;;;;;;;11.10;5.10;;;-4.00;99.90;;;;;;4975834;28;20041;-86
2021/12/21 03:05:11;;;;;;;16.95;5.93;;;-3.90;99.90;;;;;;4975241;28;20481;-87
2021/12/21 03:10:24;;;;;;;28.42;9.20;;;-4.00;99.90;;;;;;4975034;28;20038;-86
2021/12/21 03:15:23;;;;;;;81.15;21.48;;;-4.00;99.90;;;;;;4959494;28;20562;-87
2021/12/21 03:17:50;;;;;;;89.85;26.63;;;-4.00;99.90;;;;;;4976199;28;20096;-86
2021/12/21 03:20:16;;;;;;;78.25;21.45;;;-3.90;99.90;;;;;;4976538;28;20041;-87
2021/12/21 03:22:41;;;;;;;127.35;33.15;;;-4.00;99.90;;;;;;4975020;28;20093;-87
2021/12/21 03:25:08;;;;;;;119.93;33.03;;;-4.00;99.90;;;;;;4975202;28;20035;-87
2021/12/21 03:27:34;;;;;;;93.38;25.10;;;-4.00;99.90;;;;;;4959574;28;20031;-86
2021/12/21 03:29:59;;;;;;;45.55;14.75;;;-4.10;99.90;;;;;;4975876;28;20042;-88
2021/12/21 03:32:25;;;;;;;23.92;7.65;;;-4.10;99.90;;;;;;4975016;28;20841;-86
2021/12/21 03:34:51;;;;;;;23.80;6.80;;;-4.20;99.90;;;;;;4974662;28;20117;-86
2021/12/21 03:37:16;;;;;;;17.45;6.07;;;-4.20;99.90;;;;;;4975203;28;20474;-87
2021/12/21 03:39:44;;;;;;;18.10;6.07;;;-4.20;99.90;;;;;;4974982;28;20066;-86
2021/12/21 03:42:12;;;;;;;23.42;7.30;;;-4.30;99.90;;;;;;4974831;28;20074;-87
2021/12/21 03:44:39;;;;;;;22.85;6.43;;;-4.20;99.90;;;;;;4974812;28;20035;-86
2021/12/21 03:47:08;;;;;;;21.38;7.90;;;-4.30;99.90;;;;;;4975113;28;20026;-87
2021/12/21 03:52:14;;;;;;;26.13;5.55;;;-4.20;99.90;;;;;;4974246;28;20035;-86
2021/12/21 03:54:42;;;;;;;20.65;6.55;;;-4.30;99.90;;;;;;4973794;28;20031;-87
2021/12/21 03:57:08;;;;;;;21.85;6.45;;;-4.40;99.90;;;;;;4974597;28;20639;-86
2021/12/21 03:59:34;;;;;;;12.60;6.20;;;-4.40;99.90;;;;;;4974400;28;20023;-86
2021/12/21 04:02:05;;;;;;;23.20;6.53;;;-4.30;99.90;;;;;;4974631;28;20035;-86
2021/12/21 04:04:30;;;;;;;22.98;6.72;;;-4.30;99.90;;;;;;4974069;28;20062;-86
2021/12/21 04:06:56;;;;;;;26.23;8.55;;;-4.30;99.90;;;;;;4974578;28;20053;-86
2021/12/21 04:09:22;;;;;;;48.65;13.52;;;-4.30;99.90;;;;;;4958342;28;20082;-87
2021/12/21 04:11:48;;;;;;;35.85;12.40;;;-4.20;99.90;;;;;;4974490;28;20105;-86
2021/12/21 04:14:16;;;;;;;39.58;12.60;;;-4.20;99.90;;;;;;4958508;28;20039;-86
2021/12/21 04:16:42;;;;;;;33.70;11.80;;;-4.30;99.90;;;;;;4974654;28;20047;-86
2021/12/21 04:19:08;;;;;;;50.42;13.48;;;-4.30;99.90;;;;;;4974229;28;20051;-85
2021/12/21 04:21:34;;;;;;;48.90;12.10;;;-4.30;99.90;;;;;;4975294;28;20399;-86
2021/12/21 04:24:00;;;;;;;28.98;11.25;;;-4.20;99.90;;;;;;4974547;28;20061;-86
2021/12/21 04:26:25;;;;;;;39.03;11.35;;;-4.30;99.90;;;;;;4974553;28;20029;-86
2021/12/21 04:28:51;;;;;;;28.83;10.15;;;-4.20;99.90;;;;;;4974248;28;20027;-86
2021/12/21 04:31:17;;;;;;;33.50;10.63;;;-4.20;99.90;;;;;;4973989;28;20081;-86
2021/12/21 04:33:44;;;;;;;34.70;11.50;;;-4.20;99.90;;;;;;4974081;28;20037;-86
2021/12/21 04:36:11;;;;;;;24.05;9.65;;;-4.20;99.90;;;;;;4974517;28;20053;-86
2021/12/21 04:38:41;;;;;;;31.60;12.75;;;-4.10;99.90;;;;;;4974399;28;20034;-86
2021/12/21 04:41:14;;;;;;;36.00;12.18;;;-4.10;99.90;;;;;;4958383;28;20557;-86
2021/12/21 04:43:41;;;;;;;25.08;10.40;;;-4.10;99.90;;;;;;4974051;28;20133;-86
2021/12/21 04:46:07;;;;;;;31.75;10.65;;;-4.10;99.90;;;;;;4974488;28;20110;-87
2021/12/21 04:48:33;;;;;;;21.17;9.02;;;-4.10;99.90;;;;;;4974634;28;20062;-86
2021/12/21 04:51:00;;;;;;;31.17;11.48;;;-4.10;99.90;;;;;;4974398;28;20034;-86
2021/12/21 04:53:26;;;;;;;23.70;9.82;;;-4.20;99.90;;;;;;4958009;28;20041;-86
2021/12/21 04:55:52;;;;;;;27.40;9.48;;;-4.30;99.90;;;;;;4974032;28;20103;-86
2021/12/21 04:58:18;;;;;;;24.95;9.65;;;-4.30;99.90;;;;;;4974577;28;20039;-86
2021/12/21 05:00:59;;;;;;;32.47;10.80;;;-4.40;99.90;;;;;;4974362;28;20038;-86
2021/12/21 05:03:25;;;;;;;38.38;10.55;;;-4.40;99.90;;;;;;4973791;28;20064;-86
2021/12/21 05:05:51;;;;;;;22.17;9.73;;;-4.40;99.90;;;;;;4973609;28;20430;-87
2021/12/21 05:08:26;;;;;;;27.10;10.65;;;-4.40;99.90;;;;;;4977975;28;20035;-86
2021/12/21 05:10:58;;;;;;;27.60;11.00;;;-4.30;99.90;;;;;;4977714;28;20031;-86
2021/12/21 05:13:28;;;;;;;35.97;10.55;;;-4.30;99.90;;;;;;4977587;28;20387;-86
2021/12/21 05:15:54;;;;;;;38.90;11.93;;;-4.30;99.90;;;;;;4978093;28;20126;-86
2021/12/21 05:18:21;;;;;;;34.92;11.98;;;-4.20;99.90;;;;;;4977311;28;20046;-86
2021/12/21 05:20:47;;;;;;;27.50;11.68;;;-4.30;99.90;;;;;;4977457;28;20035;-87
2021/12/21 05:23:13;;;;;;;33.10;12.07;;;-4.30;99.90;;;;;;4977737;28;20470;-86
2021/12/21 05:25:40;;;;;;;35.50;12.88;;;-4.30;99.90;;;;;;4977984;28;20089;-86
2021/12/21 05:28:08;;;;;;;29.98;11.75;;;-4.40;99.90;;;;;;4977894;28;20479;-86
2021/12/21 05:30:34;;;;;;;28.23;12.00;;;-4.50;99.90;;;;;;4961739;28;20046;-86
2021/12/21 05:33:00;;;;;;;35.42;12.55;;;-4.50;99.90;;;;;;4977562;28;20031;-86
2021/12/21 05:35:26;;;;;;;27.75;11.35;;;-4.50;99.90;;;;;;4978660;28;20031;-85
2021/12/21 05:37:57;;;;;;;27.25;11.77;;;-4.50;99.90;;;;;;4977477;28;20093;-86
2021/12/21 05:40:30;;;;;;;34.17;12.15;;;-4.50;99.90;;;;;;4977185;28;20461;-86
2021/12/21 05:42:56;;;;;;;30.40;11.50;;;-4.50;99.90;;;;;;4976985;28;20125;-85
2021/12/21 05:45:22;;;;;;;39.85;12.25;;;-4.50;99.90;;;;;;4976782;28;20075;-86
2021/12/21 05:47:48;;;;;;;31.90;11.50;;;-4.50;99.90;;;;;;4977523;28;20042;-86
2021/12/21 05:50:16;;;;;;;28.42;12.55;;;-4.40;99.90;;;;;;4977229;28;20129;-84
2021/12/21 05:52:43;;;;;;;37.42;13.60;;;-4.30;99.90;;;;;;4977329;28;20049;-84
2021/12/21 05:55:10;;;;;;;35.75;12.63;;;-4.30;99.90;;;;;;4977337;28;20035;-83
2021/12/21 05:57:36;;;;;;;37.47;12.65;;;-4.30;99.90;;;;;;4961091;28;20490;-83
2021/12/21 06:00:08;;;;;;;47.95;13.65;;;-4.20;99.90;;;;;;4976797;28;20069;-84
2021/12/21 06:02:34;;;;;;;29.58;12.68;;;-4.20;99.90;;;;;;4976519;28;20368;-83
2021/12/21 06:05:07;;;;;;;39.75;13.52;;;-4.20;99.90;;;;;;4976849;28;20094;-84
2021/12/21 06:07:33;;;;;;;38.63;13.52;;;-4.30;99.90;;;;;;4976877;28;20037;-85
2021/12/21 06:10:09;;;;;;;36.25;12.30;;;-4.20;99.90;;;;;;4976898;28;20034;-85
2021/12/21 06:15:23;;;;;;;32.45;12.80;;;-4.20;99.90;;;;;;4961047;28;20475;-84
2021/12/21 06:25:59;;;;;;;34.63;11.77;;;-4.20;99.90;;;;;;4961112;28;20125;-84
2021/12/21 06:28:25;;;;;;;29.63;12.50;;;-4.20;99.90;;;;;;4977706;28;20070;-85
2021/12/21 06:30:51;;;;;;;35.47;12.65;;;-4.20;99.90;;;;;;4977166;28;20031;-85
2021/12/21 06:33:17;;;;;;;29.52;11.63;;;-4.20;99.90;;;;;;4977527;28;20034;-84
2021/12/21 06:35:43;;;;;;;25.52;11.60;;;-4.20;99.90;;;;;;4976975;28;20034;-85
2021/12/21 06:38:10;;;;;;;26.70;11.07;;;-4.10;99.90;;;;;;4977362;28;20045;-85
2021/12/21 06:40:57;;;;;;;44.75;15.02;;;-4.20;99.90;;;;;;4975776;28;20505;-85
2021/12/21 06:43:24;;;;;;;25.17;11.23;;;-4.10;99.90;;;;;;4975282;28;20043;-85
2021/12/21 06:51:36;;;;;;;29.02;11.43;;;-4.10;99.90;;;;;;4962176;28;20517;-85
2021/12/21 06:54:02;;;;;;;42.40;11.18;;;-4.10;99.90;;;;;;4975460;28;20066;-85
2021/12/21 06:56:28;;;;;;;41.13;13.50;;;-4.00;99.90;;;;;;4975400;28;20045;-85
2021/12/21 06:58:55;;;;;;;41.55;12.40;;;-4.00;99.90;;;;;;4975739;28;20031;-84
2021/12/21 07:01:22;;;;;;;36.17;10.77;;;-4.10;99.90;;;;;;4975778;28;20558;-84
2021/12/21 07:03:48;;;;;;;31.23;11.15;;;-4.10;99.90;;;;;;4976022;28;20439;-84
2021/12/21 07:06:16;;;;;;;23.48;10.35;;;-4.10;99.90;;;;;;4975893;28;20034;-86
2021/12/21 07:08:53;;;;;;;24.58;9.25;;;-4.10;99.90;;;;;;4975651;28;20556;-84
2021/12/21 07:11:36;;;;;;;24.58;9.48;;;-4.20;99.90;;;;;;4975048;28;20081;-83
2021/12/21 07:19:44;;;;;;;26.05;11.00;;;-4.30;99.90;;;;;;4958795;28;20052;-84
2021/12/21 07:22:11;;;;;;;24.60;10.93;;;-4.30;99.90;;;;;;4974768;28;20669;-85
2021/12/21 07:24:37;;;;;;;29.58;11.88;;;-4.40;99.90;;;;;;4958138;28;20031;-84
2021/12/21 07:27:03;;;;;;;32.65;14.35;;;-4.40;99.90;;;;;;4974968;28;20133;-84
2021/12/21 07:29:29;;;;;;;28.33;12.93;;;-4.30;99.90;;;;;;4974341;28;20031;-84
2021/12/21 07:31:55;;;;;;;32.92;13.05;;;-4.20;99.90;;;;;;4958657;28;20073;-84
2021/12/21 07:34:21;;;;;;;23.92;11.45;;;-4.20;99.90;;;;;;4944486;28;20061;-84
2021/12/21 07:36:47;;;;;;;26.27;10.43;;;-4.20;99.90;;;;;;4976113;28;20031;-86
2021/12/21 07:39:17;;;;;;;25.85;11.98;;;-4.20;99.90;;;;;;4975622;28;20077;-86
2021/12/21 07:41:44;;;;;;;21.65;9.15;;;-4.30;99.90;;;;;;4976438;28;20050;-86
2021/12/21 07:44:11;;;;;;;27.55;10.50;;;-4.30;99.90;;;;;;4975631;28;20035;-86
2021/12/21 07:46:38;;;;;;;19.77;9.35;;;-4.10;99.90;;;;;;4975450;28;20035;-86
2021/12/21 07:49:04;;;;;;;25.60;8.90;;;-4.20;99.90;;;;;;4975822;28;20031;-86
2021/12/21 07:51:30;;;;;;;19.73;8.80;;;-4.20;99.90;;;;;;4975358;28;20394;-85
2021/12/21 07:53:56;;;;;;;26.58;9.75;;;-4.20;99.90;;;;;;4975418;28;20027;-85
2021/12/21 07:56:22;;;;;;;24.15;9.50;;;-4.20;99.90;;;;;;4976910;28;20038;-87
2021/12/21 07:58:48;;;;;;;25.92;9.30;;;-4.20;99.90;;;;;;4958726;28;20550;-86
2021/12/21 08:01:14;;;;;;;21.80;10.02;;;-4.10;99.90;;;;;;4942348;28;20516;-86
2021/12/21 08:03:40;;;;;;;15.50;7.95;;;-4.10;99.90;;;;;;4973885;28;20346;-86
2021/12/21 08:06:08;;;;;;;23.85;8.93;;;-4.00;99.90;;;;;;4974442;28;20035;-85
2021/12/21 08:08:39;;;;;;;19.10;7.88;;;-3.90;99.90;;;;;;4974247;28;20041;-85
2021/12/21 08:14:05;;;;;;;23.23;8.93;;;-3.70;99.90;;;;;;4968426;28;20509;-86
2021/12/21 08:16:31;;;;;;;23.35;9.30;;;-3.70;99.90;;;;;;4974643;28;20035;-85
2021/12/21 08:18:57;;;;;;;24.98;8.63;;;-3.60;99.90;;;;;;4974268;28;20115;-85
2021/12/21 08:21:25;;;;;;;17.02;8.02;;;-3.50;99.90;;;;;;4974092;28;20132;-85
2021/12/21 08:23:51;;;;;;;17.52;8.63;;;-3.50;99.90;;;;;;4973660;28;20062;-86
2021/12/21 08:26:16;;;;;;;16.38;7.05;;;-3.30;99.90;;;;;;4974172;28;20112;-86
2021/12/21 08:28:42;;;;;;;17.50;7.38;;;-3.30;99.90;;;;;;4974215;28;20026;-86
2021/12/21 08:31:12;;;;;;;20.42;8.07;;;-3.20;99.90;;;;;;4973834;28;20479;-86
2021/12/21 08:33:39;;;;;;;13.27;6.05;;;-3.20;99.90;;;;;;4974052;28;20037;-86
2021/12/21 08:36:06;;;;;;;20.67;6.68;;;-2.90;99.90;;;;;;4974194;28;20511;-85
2021/12/21 08:38:36;;;;;;;16.48;7.32;;;-2.60;99.90;;;;;;4974006;28;20073;-86
2021/12/21 08:41:03;;;;;;;13.05;5.82;;;-2.60;99.90;;;;;;4973686;28;20463;-84
2021/12/21 08:43:31;;;;;;;19.20;5.72;;;-2.50;99.90;;;;;;4973301;28;20042;-82
2021/12/21 08:45:57;;;;;;;15.75;5.72;;;-2.60;99.90;;;;;;4973080;28;20114;-83
2021/12/21 08:48:25;;;;;;;13.48;5.22;;;-2.60;99.90;;;;;;4973596;28;20028;-85
2021/12/21 08:50:54;;;;;;;21.15;6.22;;;-2.50;99.90;;;;;;4973594;28;20050;-86
2021/12/21 08:53:21;;;;;;;18.63;7.10;;;-2.50;99.90;;;;;;4973894;28;20038;-86
2021/12/21 08:55:47;;;;;;;16.10;7.10;;;-2.50;99.90;;;;;;4942176;28;20611;-85
2021/12/21 08:58:13;;;;;;;16.25;6.43;;;-2.40;99.90;;;;;;4941789;28;20027;-86
2021/12/21 09:00:40;;;;;;;12.13;5.55;;;-2.40;99.90;;;;;;4973749;28;20042;-85
2021/12/21 09:03:07;;;;;;;17.17;7.05;;;-2.30;99.90;;;;;;4973582;28;20081;-86
2021/12/21 09:05:34;;;;;;;11.32;6.40;;;-2.20;99.90;;;;;;4973546;28;20475;-85
2021/12/21 09:08:02;;;;;;;13.63;6.93;;;-2.20;99.90;;;;;;4975196;28;20031;-85
2021/12/21 09:10:30;;;;;;;10.82;5.20;;;-2.20;99.90;;;;;;4974240;28;20392;-84
2021/12/21 09:12:57;;;;;;;19.45;5.47;;;-2.20;99.90;;;;;;4974121;28;20042;-86
2021/12/21 09:15:24;;;;;;;14.68;5.97;;;-2.10;99.90;;;;;;4957922;28;20034;-84
2021/12/21 09:17:51;;;;;;;31.98;8.40;;;-2.10;99.90;;;;;;4974143;28;20053;-87
2021/12/21 09:20:19;;;;;;;28.42;10.25;;;-2.00;99.90;;;;;;4974070;28;20434;-86
2021/12/21 09:22:46;;;;;;;20.70;7.53;;;-1.90;99.90;;;;;;4957968;28;20027;-85
2021/12/21 09:25:13;;;;;;;21.95;6.50;;;-1.80;99.90;;;;;;4975074;28;20023;-86
2021/12/21 09:27:39;;;;;;;19.27;6.97;;;-1.80;99.90;;;;;;4974835;28;20038;-85
2021/12/21 09:30:11;;;;;;;19.55;7.47;;;-1.70;99.90;;;;;;4974861;28;20035;-86
2021/12/21 09:32:37;;;;;;;15.95;7.28;;;-1.70;99.90;;;;;;4974806;28;20394;-86
2021/12/21 09:35:04;;;;;;;20.15;7.65;;;-1.60;99.90;;;;;;4978515;28;20038;-85
2021/12/21 09:37:31;;;;;;;29.80;8.82;;;-1.60;99.90;;;;;;4976663;28;20038;-87
2021/12/21 09:39:59;;;;;;;14.85;7.20;;;-1.50;99.90;;;;;;4974682;28;20039;-86
2021/12/21 09:42:30;;;;;;;17.70;7.50;;;-1.30;99.90;;;;;;4974691;28;20176;-85
2021/12/21 09:44:58;;;;;;;15.90;6.90;;;-0.70;99.90;;;;;;4974555;28;20030;-84
2021/12/21 09:47:26;;;;;;;13.10;6.40;;;0.30;99.90;;;;;;4974904;28;20030;-86
2021/12/21 09:49:53;;;;;;;11.88;5.90;;;1.30;99.90;;;;;;4974249;28;20506;-85
2021/12/21 09:52:24;;;;;;;12.93;6.43;;;1.90;99.90;;;;;;4975108;28;20483;-86
2021/12/21 09:54:51;;;;;;;10.60;5.72;;;2.40;99.90;;;;;;4961659;28;20034;-87
2021/12/21 09:57:18;;;;;;;15.27;6.20;;;2.90;99.90;;;;;;4977116;28;20030;-87
2021/12/21 09:59:45;;;;;;;9.38;4.65;;;3.20;99.90;;;;;;4977538;28;20038;-88
2021/12/21 10:02:11;;;;;;;10.98;4.97;;;3.60;99.90;;;;;;4977342;28;20046;-87
2021/12/21 10:04:49;;;;;;;9.90;4.80;;;3.60;99.90;;;;;;4944788;28;20039;-85
2021/12/21 10:07:18;;;;;;;9.82;4.00;;;3.50;99.90;;;;;;4961033;28;20030;-86
2021/12/21 10:09:46;;;;;;;8.77;4.40;;;3.40;99.90;;;;;;4977647;28;20118;-87
2021/12/21 10:12:25;;;;;;;8.88;4.72;;;3.80;99.90;;;;;;4977226;28;20094;-84
2021/12/21 10:15:11;;;;;;;11.45;4.45;;;3.80;99.90;;;;;;4977529;28;20383;-87
2021/12/21 10:17:46;;;;;;;9.05;4.50;;;3.70;99.90;;;;;;4977206;28;20038;-87
2021/12/21 10:20:15;;;;;;;12.85;4.72;;;3.30;99.90;;;;;;4977234;28;20073;-87
2021/12/21 10:22:51;;;;;;;7.57;4.35;;;3.00;99.90;;;;;;4978061;28;20070;-85
2021/12/21 10:25:17;;;;;;;11.25;4.93;;;2.40;99.90;;;;;;4977585;28;20050;-86
2021/12/21 10:27:44;;;;;;;10.55;5.07;;;2.10;99.90;;;;;;4976885;28;20094;-86
2021/12/21 10:30:10;;;;;;;8.68;4.53;;;2.10;99.90;;;;;;4976514;28;20042;-86
2021/12/21 10:32:36;;;;;;;7.57;4.20;;;2.20;99.90;;;;;;4976139;28;20676;-85
2021/12/21 10:35:09;;;;;;;7.68;4.28;;;1.70;99.90;;;;;;4975847;28;20039;-86
2021/12/21 10:37:40;;;;;;;10.45;4.93;;;1.60;99.90;;;;;;4977875;28;20043;-86
2021/12/21 10:40:17;;;;;;;7.93;4.47;;;1.50;99.90;;;;;;4976542;28;20181;-86
2021/12/21 10:42:46;;;;;;;11.82;4.35;;;1.40;99.90;;;;;;4974285;28;20542;-86
2021/12/21 10:45:12;;;;;;;8.90;4.43;;;1.10;99.90;;;;;;4975397;28;20027;-85
2021/12/21 10:47:51;;;;;;;7.72;4.07;;;1.00;99.90;;;;;;4975883;28;20479;-85
2021/12/21 10:50:17;;;;;;;12.25;4.90;;;0.70;99.90;;;;;;4975372;28;20039;-86
2021/12/21 10:52:49;;;;;;;12.82;4.80;;;0.50;99.90;;;;;;4960114;28;20675;-87
2021/12/21 10:55:15;;;;;;;16.83;5.78;;;0.50;99.90;;;;;;4976219;28;20400;-86
2021/12/21 10:57:41;;;;;;;16.48;6.03;;;0.40;99.90;;;;;;4976238;28;20961;-85
2021/12/21 11:00:14;;;;;;;16.67;4.68;;;0.30;99.90;;;;;;4976044;28;20031;-87
2021/12/21 11:03:02;;;;;;;25.13;6.53;;;0.30;99.90;;;;;;4976493;28;20022;-86
2021/12/21 11:05:27;;;;;;;10.85;4.70;;;0.30;99.90;;;;;;4943243;28;20034;-85
2021/12/21 11:08:01;;;;;;;8.85;5.15;;;0.30;99.90;;;;;;4975837;28;20474;-86
2021/12/21 11:10:32;;;;;;;11.88;5.20;;;0.50;99.90;;;;;;4976009;28;20031;-87
2021/12/21 11:13:07;;;;;;;20.75;8.55;;;0.60;99.90;;;;;;4976189;28;20150;-86
2021/12/21 11:15:43;;;;;;;18.80;8.18;;;0.50;99.90;;;;;;4975093;28;20674;-86
2021/12/21 11:18:16;;;;;;;15.70;6.97;;;0.40;99.90;;;;;;4975149;28;20121;-86
2021/12/21 11:20:45;;;;;;;8.02;5.10;;;0.50;99.90;;;;;;4976108;28;20039;-86
2021/12/21 11:23:15;;;;;;;9.02;5.15;;;0.80;99.90;;;;;;4974730;28;20034;-86
2021/12/21 11:25:43;;;;;;;11.17;5.43;;;0.80;99.90;;;;;;4974853;28;20050;-86
2021/12/21 11:28:14;;;;;;;13.30;6.65;;;0.80;99.90;;;;;;4974956;28;20099;-86
2021/12/21 11:30:41;;;;;;;10.93;4.55;;;1.00;99.90;;;;;;4974432;28;20035;-86
2021/12/21 11:33:09;;;;;;;13.48;4.78;;;1.20;99.90;;;;;;4974096;28;20130;-86
2021/12/21 11:38:12;;;;;;;8.50;4.95;;;1.50;99.90;;;;;;4974429;28;20465;-87
2021/12/21 11:40:43;;;;;;;9.98;4.38;;;1.60;99.90;;;;;;4942253;28;20045;-86
2021/12/21 11:43:34;;;;;;;;;;;1.90;99.90;;;;;;4974368;28;20050;-87
2021/12/21 11:46:13;;;;;;;12.55;4.25;;;2.30;99.90;;;;;;4958591;28;19914;-86
2021/12/21 11:48:50;;;;;;;8.90;4.10;;;2.70;99.90;;;;;;4974598;28;20035;-86
2021/12/21 11:51:22;;;;;;;10.40;4.22;;;2.70;99.90;;;;;;4974421;28;20046;-86
2021/12/21 11:53:48;;;;;;;8.45;4.28;;;2.50;99.90;;;;;;4974533;28;20027;-86
2021/12/21 11:56:19;;;;;;;8.02;4.57;;;1.90;99.90;;;;;;4973988;28;20569;-84
2021/12/21 11:58:48;;;;;;;11.63;5.07;;;1.40;99.90;;;;;;4975758;28;20118;-84
2021/12/21 12:01:13;;;;;;;13.70;6.03;;;1.00;99.90;;;;;;4974496;28;20023;-84
2021/12/21 12:03:44;;;;;;;12.73;5.35;;;0.80;99.90;;;;;;4975490;28;20509;-85
2021/12/21 12:06:14;;;;;;;10.60;5.17;;;0.50;99.90;;;;;;4974276;28;20027;-84
2021/12/21 12:08:54;;;;;;;7.65;4.45;;;0.40;99.90;;;;;;4974447;28;20270;-84
2021/12/21 12:11:39;;;;;;;8.82;4.63;;;0.40;99.90;;;;;;4974532;28;20126;-84
2021/12/21 12:14:12;;;;;;;13.27;5.05;;;0.30;99.90;;;;;;4974318;28;20026;-84
2021/12/21 12:17:05;;;;;;;9.95;4.82;;;0.20;99.90;;;;;;4974515;28;20423;-85
2021/12/21 12:19:34;;;;;;;6.75;4.70;;;0.20;99.90;;;;;;4974344;28;20035;-86
2021/12/21 12:22:06;;;;;;;17.15;6.22;;;0.20;99.90;;;;;;4974258;28;20042;-85
2021/12/21 12:24:43;;;;;;;19.08;8.73;;;0.10;99.90;;;;;;4974914;28;20039;-85
2021/12/21 12:27:11;;;;;;;29.70;8.30;;;0.10;99.90;;;;;;4974063;28;20379;-85
2021/12/21 12:30:05;;;;;;;30.00;12.00;;;0.00;99.90;;;;;;4942259;28;20077;-85
2021/12/21 12:32:35;;;;;;;25.50;10.38;;;0.00;99.90;;;;;;4954274;28;20483;-86
2021/12/21 12:35:09;;;;;;;31.83;10.93;;;0.00;99.90;;;;;;4972709;28;20038;-85
2021/12/21 12:37:53;;;;;;;26.73;10.77;;;0.00;99.90;;;;;;4973652;28;20031;-85
2021/12/21 12:40:25;;;;;;;22.52;9.30;;;0.00;99.90;;;;;;4943769;28;20073;-85
2021/12/21 12:42:56;;;;;;;39.38;11.95;;;0.00;99.90;;;;;;4973123;28;20410;-85
2021/12/21 12:45:22;;;;;;;23.75;11.20;;;-0.10;99.90;;;;;;4973436;28;20080;-85
2021/12/21 12:47:54;;;;;;;28.58;11.90;;;0.00;99.90;;;;;;4973572;28;20031;-85
2021/12/21 12:50:29;;;;;;;25.98;11.10;;;0.00;99.90;;;;;;4973691;28;20042;-85
2021/12/21 12:52:58;;;;;;;19.65;9.50;;;-0.10;99.90;;;;;;4973477;28;20498;-85
2021/12/21 12:55:34;;;;;;;36.42;11.85;;;-0.10;99.90;;;;;;4973354;28;20472;-85
2021/12/21 12:58:04;;;;;;;28.17;9.68;;;0.00;99.90;;;;;;4971200;28;20042;-85
2021/12/21 13:00:33;;;;;;;27.60;10.05;;;-0.10;99.90;;;;;;4973374;28;20536;-85
2021/12/21 13:03:08;;;;;;;28.67;11.45;;;-0.10;99.90;;;;;;4975385;28;20031;-85
2021/12/21 13:05:41;;;;;;;34.92;12.75;;;0.00;99.90;;;;;;4974114;28;20033;-86
2021/12/21 13:08:14;;;;;;;18.42;8.07;;;-0.10;99.90;;;;;;4973394;28;20041;-86
2021/12/21 13:10:42;;;;;;;39.97;13.55;;;-0.10;99.90;;;;;;4973708;28;20557;-86
2021/12/21 13:13:08;;;;;;;37.08;12.77;;;-0.10;99.90;;;;;;4973272;28;20030;-85
2021/12/21 13:15:41;;;;;;;24.67;9.80;;;-0.10;99.90;;;;;;4974728;28;20086;-85
2021/12/21 13:18:09;;;;;;;27.30;9.85;;;-0.10;99.90;;;;;;4973068;28;20042;-85
2021/12/21 13:20:36;;;;;;;34.72;10.98;;;-0.10;99.90;;;;;;4973654;28;20394;-86
2021/12/21 13:23:14;;;;;;;27.85;10.15;;;-0.20;99.90;;;;;;4973899;28;20419;-86
2021/12/21 13:25:51;;;;;;;17.45;7.82;;;-0.30;99.90;;;;;;4957354;28;20479;-85
2021/12/21 13:28:17;;;;;;;16.63;7.75;;;-0.20;99.90;;;;;;4975588;28;20086;-84
2021/12/21 13:30:48;;;;;;;18.45;9.88;;;-0.20;99.90;;;;;;4977418;28;20038;-85
2021/12/21 13:33:23;;;;;;;20.40;7.70;;;-0.20;99.90;;;;;;4977249;28;20038;-84
2021/12/21 13:35:59;;;;;;;10.98;6.15;;;-0.30;99.90;;;;;;4944783;28;20053;-85
2021/12/21 13:38:27;;;;;;;10.88;5.55;;;-0.30;99.90;;;;;;4961281;28;20035;-85
2021/12/21 13:41:07;;;;;;;14.77;5.95;;;-0.30;99.90;;;;;;4961076;28;20089;-84
2021/12/21 13:43:34;;;;;;;9.55;5.28;;;-0.30;99.90;;;;;;4976717;28;20422;-85
2021/12/21 13:46:01;;;;;;;9.95;6.68;;;-0.40;99.90;;;;;;4977129;28;20027;-84
2021/12/21 13:48:29;;;;;;;11.75;6.07;;;-0.40;99.90;;;;;;4976971;28;20039;-85